»·PEaware :: N68AW KTUS-KSNA

N68AW :: KTUS-KSNA

FLIGHT INFORMATION

Flight Status: Arrived
Operator: Privately registered:
United States
More flights under this callsign
Pilot: Eric S. (30948)
Aircraft: CIRRUS SR-22
(SR22)
More flights by this aircraft type
Origin: KTUS Tucson Intl
United States
Destination: KSNA John Wayne-Orange Co
United States
More flights between these airports :: More routes between these airports
Route: +RYNN ROSKR GBN CULTS EMLLD DRTHI DSNEE
File this flight plan on PilotEdge
Remarks:
Altitude:
(Current/Filed)
11,500ft
Speed:
(Current/Filed)
150kts
Departed: 06-Sep-20 09:57 AM
Arrived: 06-Sep-20 12:30 PM
Distance/Time
Traveled:
6458nm/2:33
Distance/Time
To Go:
Arrived

Flight Plot

Page will automatically refresh every two minutes.

Flight plan parsing failed; only flown route is shown


Map Options




Map Legend


Flown Route
Filed Route
Departure Airport
Arrival Airport
Navaid (VOR, NDB)
Fix

Horizontal Profiles

Position Reports

Time Latitude Longitude Heading Altitude Ground
Speed
06-Sep-20 09:41 32.123386 -110.943797 315 2588ft 0kts
06-Sep-20 09:42 32.123386 -110.943797 315 2588ft 0kts
06-Sep-20 09:43 32.123386 -110.943797 315 2588ft 0kts
06-Sep-20 09:44 32.123386 -110.943797 315 2588ft 0kts
06-Sep-20 09:45 32.123386 -110.943797 315 2588ft 0kts
06-Sep-20 09:46 32.123386 -110.943797 315 2588ft 0kts
06-Sep-20 09:47 32.123386 -110.943797 315 2588ft 0kts
06-Sep-20 09:48 32.123386 -110.943797 315 2588ft 0kts
06-Sep-20 09:50 32.123386 -110.943797 315 2588ft 0kts
06-Sep-20 09:51 32.123383 -110.943854 218 2588ft 0kts
06-Sep-20 09:52 32.123331 -110.943903 234 2588ft 0kts
06-Sep-20 09:53 32.123548 -110.945668 313 2585ft 20kts
06-Sep-20 09:54 32.123926 -110.947090 222 2583ft 0kts
06-Sep-20 09:55 32.123863 -110.947156 221 2583ft 0kts
06-Sep-20 09:56 32.123131 -110.947607 139 2584ft 0kts
06-Sep-20 09:57 32.108926 -110.929392 134 2973ft 111kts
06-Sep-20 09:58 32.085797 -110.896381 122 3711ft 144kts
06-Sep-20 09:59 32.066598 -110.854636 119 4607ft 144kts
06-Sep-20 10:00 32.041961 -110.820983 170 5516ft 140kts
06-Sep-20 10:01 32.016831 -110.847093 255 6413ft 137kts
06-Sep-20 10:02 32.001362 -110.887780 259 7312ft 135kts
06-Sep-20 10:03 32.001965 -110.931897 272 8208ft 134kts
06-Sep-20 10:04 32.011863 -110.977813 306 8418ft 162kts
06-Sep-20 10:04 32.036474 -111.012361 308 8414ft 166kts
06-Sep-20 10:06 32.069266 -111.063124 305 8478ft 163kts
06-Sep-20 10:07 32.091213 -111.105701 276 9081ft 146kts
06-Sep-20 10:07 32.086043 -111.144542 262 9581ft 143kts
06-Sep-20 10:09 32.081835 -111.198174 296 10277ft 143kts
06-Sep-20 10:09 32.109270 -111.223755 318 10381ft 161kts
06-Sep-20 10:10 32.143720 -111.259412 321 10379ft 167kts
06-Sep-20 10:11 32.179438 -111.294744 320 10372ft 168kts
06-Sep-20 10:12 32.215412 -111.329976 320 10364ft 168kts
06-Sep-20 10:13 32.251358 -111.365125 319 10358ft 168kts
06-Sep-20 10:14 32.287357 -111.400366 319 10350ft 167kts
06-Sep-20 10:15 32.323338 -111.435602 319 10342ft 168kts
06-Sep-20 10:16 32.358996 -111.470724 318 10332ft 167kts
06-Sep-20 10:17 32.391692 -111.509619 296 10335ft 167kts
06-Sep-20 10:18 32.414935 -111.557376 298 10327ft 168kts
06-Sep-20 10:19 32.438190 -111.605128 299 10359ft 165kts
06-Sep-20 10:20 32.461252 -111.652349 299 10394ft 167kts
06-Sep-20 10:21 32.484656 -111.700171 299 10390ft 167kts
06-Sep-20 10:22 32.507990 -111.747821 299 10385ft 161kts
06-Sep-20 10:23 32.529751 -111.792298 299 10383ft 153kts
06-Sep-20 10:24 32.551081 -111.835892 299 10379ft 152kts
06-Sep-20 10:25 32.572272 -111.879273 299 10377ft 152kts
06-Sep-20 10:26 32.593564 -111.922909 299 10374ft 152kts
06-Sep-20 10:27 32.614797 -111.966476 299 10372ft 152kts
06-Sep-20 10:28 32.635985 -112.010001 299 10369ft 152kts
06-Sep-20 10:29 32.657140 -112.053507 299 10366ft 152kts
06-Sep-20 10:30 32.678379 -112.097239 299 10363ft 153kts
06-Sep-20 10:31 32.699604 -112.140999 298 10361ft 152kts
06-Sep-20 10:32 32.720511 -112.184161 298 10456ft 147kts
06-Sep-20 10:33 32.741272 -112.227039 298 10473ft 151kts
06-Sep-20 10:34 32.762226 -112.270394 298 10469ft 151kts
06-Sep-20 10:35 32.783227 -112.313892 299 10466ft 151kts
06-Sep-20 10:36 32.804257 -112.357511 298 10464ft 152kts
06-Sep-20 10:37 32.825239 -112.401070 298 10460ft 152kts
06-Sep-20 10:38 32.846258 -112.444759 298 10456ft 152kts
06-Sep-20 10:39 32.867289 -112.488531 298 10454ft 152kts
06-Sep-20 10:40 32.888246 -112.532191 298 10449ft 152kts
06-Sep-20 10:41 32.909240 -112.576009 298 10445ft 152kts
06-Sep-20 10:42 32.930270 -112.619915 298 10439ft 152kts
06-Sep-20 10:43 32.951275 -112.663840 298 10435ft 152kts
06-Sep-20 10:44 32.971908 -112.707838 298 10431ft 152kts
06-Sep-20 10:45 32.992567 -112.752063 298 10427ft 152kts
06-Sep-20 10:46 33.013120 -112.796149 298 10425ft 152kts
06-Sep-20 10:47 33.033744 -112.840464 298 10424ft 152kts
06-Sep-20 10:48 33.054273 -112.884625 298 10424ft 152kts
06-Sep-20 10:49 33.074838 -112.928918 298 10424ft 152kts
06-Sep-20 10:50 33.095331 -112.973123 298 10424ft 152kts
06-Sep-20 10:51 33.115937 -113.017594 298 10423ft 153kts
06-Sep-20 10:52 33.136483 -113.062020 298 10423ft 152kts
06-Sep-20 10:53 33.156943 -113.106292 297 10423ft 152kts
06-Sep-20 10:54 33.177398 -113.150622 297 10424ft 152kts
06-Sep-20 10:55 33.197860 -113.195028 297 10425ft 152kts
06-Sep-20 10:56 33.218301 -113.239422 297 10429ft 152kts
06-Sep-20 10:57 33.238686 -113.283790 297 10430ft 152kts
06-Sep-20 10:58 33.259132 -113.328278 297 10430ft 152kts
06-Sep-20 10:59 33.279532 -113.372777 297 10431ft 152kts
06-Sep-20 11:00 33.299895 -113.417235 297 10441ft 152kts
06-Sep-20 11:01 33.320207 -113.461628 297 10437ft 152kts
06-Sep-20 11:02 33.340500 -113.506049 297 10440ft 152kts
06-Sep-20 11:03 33.360770 -113.550464 297 10442ft 151kts
06-Sep-20 11:04 33.380988 -113.594833 297 10446ft 153kts
06-Sep-20 11:05 33.401295 -113.639400 297 10446ft 151kts
06-Sep-20 11:06 33.421377 -113.683580 297 10445ft 151kts
06-Sep-20 11:07 33.441568 -113.728084 297 10445ft 152kts
06-Sep-20 11:08 33.451014 -113.776008 277 10443ft 151kts
06-Sep-20 11:09 33.459321 -113.825265 277 10442ft 151kts
06-Sep-20 11:10 33.466874 -113.874705 278 10441ft 151kts
06-Sep-20 11:11 33.474258 -113.924141 279 10438ft 151kts
06-Sep-20 11:12 33.481638 -113.973810 279 10436ft 151kts
06-Sep-20 11:13 33.489001 -114.023513 279 10435ft 151kts
06-Sep-20 11:14 33.496346 -114.073141 279 10432ft 151kts
06-Sep-20 11:15 33.503672 -114.122790 279 10427ft 151kts
06-Sep-20 11:16 33.511191 -114.173854 279 10429ft 163kts
06-Sep-20 11:17 33.519226 -114.228609 279 10428ft 168kts
06-Sep-20 11:18 33.527326 -114.284006 279 10425ft 169kts
06-Sep-20 11:19 33.535440 -114.339647 279 10426ft 169kts
06-Sep-20 11:20 33.543539 -114.395381 279 10422ft 169kts
06-Sep-20 11:21 33.551475 -114.450165 279 10422ft 165kts
06-Sep-20 11:22 33.559277 -114.504322 277 10421ft 164kts
06-Sep-20 11:23 33.562007 -114.558914 275 10421ft 164kts
06-Sep-20 11:24 33.564854 -114.613524 273 10421ft 164kts
06-Sep-20 11:25 33.567721 -114.668114 273 10420ft 164kts
06-Sep-20 11:26 33.570582 -114.722611 273 10453ft 162kts
06-Sep-20 11:27 33.573438 -114.777455 272 10420ft 164kts
06-Sep-20 11:28 33.576263 -114.832118 272 10420ft 164kts
06-Sep-20 11:29 33.579062 -114.886714 272 10419ft 164kts
06-Sep-20 11:30 33.581827 -114.941152 272 10420ft 164kts
06-Sep-20 11:31 33.584575 -114.995754 272 10421ft 164kts
06-Sep-20 11:32 33.587307 -115.050426 272 10421ft 164kts
06-Sep-20 11:33 33.590013 -115.105148 272 10420ft 164kts
06-Sep-20 11:34 33.592696 -115.159840 272 10419ft 164kts
06-Sep-20 11:35 33.595346 -115.214373 272 10419ft 164kts
06-Sep-20 11:36 33.597978 -115.269050 272 10419ft 163kts
06-Sep-20 11:37 33.600572 -115.323500 272 10420ft 163kts
06-Sep-20 11:38 33.603147 -115.377823 272 10419ft 162kts
06-Sep-20 11:39 33.605697 -115.432104 272 10421ft 163kts
06-Sep-20 11:40 33.608227 -115.486581 272 10421ft 163kts
06-Sep-20 11:41 33.610712 -115.540959 272 10423ft 163kts
06-Sep-20 11:42 33.613183 -115.595239 272 10424ft 163kts
06-Sep-20 11:44 33.615621 -115.649340 272 10465ft 162kts
06-Sep-20 11:45 33.618045 -115.703532 272 10469ft 163kts
06-Sep-20 11:46 33.620419 -115.757877 272 10474ft 162kts
06-Sep-20 11:47 33.623305 -115.811938 272 10480ft 162kts
06-Sep-20 11:48 33.626170 -115.866103 272 10486ft 162kts
06-Sep-20 11:49 33.629010 -115.920152 273 10492ft 162kts
06-Sep-20 11:50 33.631832 -115.974288 272 10500ft 163kts
06-Sep-20 11:51 33.634642 -116.028503 273 10499ft 162kts
06-Sep-20 11:52 33.637390 -116.082495 272 10509ft 163kts
06-Sep-20 11:53 33.640164 -116.136727 272 10512ft 162kts
06-Sep-20 11:54 33.642875 -116.190512 272 10516ft 162kts
06-Sep-20 11:55 33.645570 -116.244439 272 10519ft 162kts
06-Sep-20 11:56 33.648244 -116.298499 272 10505ft 164kts
06-Sep-20 11:57 33.650968 -116.353839 272 10423ft 164kts
06-Sep-20 11:58 33.653615 -116.408488 272 10427ft 163kts
06-Sep-20 11:59 33.656234 -116.462655 272 10431ft 162kts
06-Sep-20 12:00 33.657559 -116.517022 263 10433ft 163kts
06-Sep-20 12:01 33.656036 -116.570669 266 10528ft 161kts
06-Sep-20 12:01 33.654713 -116.616022 267 10478ft 166kts
06-Sep-20 12:03 33.652748 -116.681626 267 10125ft 167kts
06-Sep-20 12:04 33.651098 -116.737417 266 9821ft 166kts
06-Sep-20 12:04 33.649703 -116.783998 267 9582ft 168kts
06-Sep-20 12:05 33.647987 -116.841153 267 9032ft 174kts
06-Sep-20 12:06 33.646206 -116.899473 267 8498ft 172kts
06-Sep-20 12:07 33.644495 -116.954617 267 8418ft 163kts
06-Sep-20 12:08 33.642784 -117.009480 267 8217ft 165kts
06-Sep-20 12:09 33.640995 -117.064833 266 8021ft 166kts
06-Sep-20 12:10 33.639219 -117.120203 267 7815ft 166kts
06-Sep-20 12:11 33.637424 -117.175186 267 7616ft 166kts
06-Sep-20 12:12 33.641543 -117.229412 297 7420ft 167kts
06-Sep-20 12:13 33.657545 -117.281247 286 7215ft 166kts
06-Sep-20 12:14 33.672706 -117.333742 286 7109ft 162kts
06-Sep-20 12:15 33.687349 -117.384946 287 7099ft 163kts
06-Sep-20 12:16 33.702309 -117.437694 287 6798ft 169kts
06-Sep-20 12:17 33.717459 -117.491340 287 6492ft 169kts
06-Sep-20 12:18 33.731246 -117.540262 288 6185ft 137kts
06-Sep-20 12:19 33.743165 -117.582817 287 5594ft 134kts
06-Sep-20 12:20 33.743475 -117.622057 243 5487ft 112kts
06-Sep-20 12:21 33.743042 -117.656984 274 5355ft 101kts
06-Sep-20 12:22 33.745639 -117.697293 273 4440ft 144kts
06-Sep-20 12:23 33.748311 -117.743938 272 3465ft 107kts
06-Sep-20 12:24 33.749748 -117.775410 269 3210ft 90kts
06-Sep-20 12:25 33.742299 -117.807428 245 2615ft 108kts
06-Sep-20 12:26 33.723225 -117.837984 208 1102ft 109kts
06-Sep-20 12:27 33.701951 -117.851942 212 593ft 81kts
06-Sep-20 12:28 33.682689 -117.864425 209 127ft 79kts
06-Sep-20 12:29 33.674258 -117.870834 294 54ft 1kts
06-Sep-20 12:30 33.675605 -117.871146 119 52ft 0kts
06-Sep-20 12:31 33.675605 -117.871146 119 52ft 0kts
06-Sep-20 12:32 33.675605 -117.871146 119 52ft 0kts
06-Sep-20 12:33 33.675605 -117.871146 119 52ft 0kts
06-Sep-20 12:34 33.675605 -117.871146 119 52ft 0kts
06-Sep-20 12:35 33.675605 -117.871146 119 52ft 0kts
06-Sep-20 12:36 0.000408 0.013975 0 3ft 0kts

Navigation Log

Ident Type
Flight plan parsing failed, navigation log unavailable